Hauptseite
METAR-TAF:

METAR-TAF

Flughäfen :

Fliegerhorst Büchel

Büchel, Deutschland

Breite: 50-10N, Länge: 007-04E, Höhe: 478 m

Beobachtung

Neuester Wetterbericht von vor 1 Stunde und 7 Minuten, um 02:20 UTC
Wind 2 kt aus Nordwest
Temperatur 5°C
Luftfeuchtigkeit 100%
Luftdruck 1013 hPa

METAR: ETSB 290220Z AUTO 32002KT //// // ////// 05/05 Q1013 ///

Zeit: 04:27 (03:27 UTC)

Prognose

Neuester Wetterbericht von vor 12 Stunden und 38 Minuten, um 14:49 UTC
Gültige Prognose vom 28 um 15 UTC bis 28 um 24 UTC
Wind 8 kt aus West/Südwest
Sichtweite: 0500 m
Geschlossene Wolkendecke in der Höhe von 100 ft
Nebel
Zeitweise
vom 28 um 15 UTC bis 28 um 24 UTC
Wind 3 kt aus West/Südwest
Sichtweite: 3000 m
Geschlossene Wolkendecke in der Höhe von 100 ft
Sprühregen

TAF: ETSB 281449Z 2815/2824 24008KT 0500 FG OVC001 TEMPO 2815/2824 25003KT 3000 DZ OVC001 BY ETGL

Wetterbeobachtungen und Prognosen von mehr als 4000 Flughäfen (METAR und TAF Bericht).

Die verfügbaren Stationen werden durch gelbe und rote Markierungen auf der Karte dargestellt.

Führen Sie die Maus auf sie, um den Namen der Station zu sehen.

Darauf klicken, um die Beobachtung von Wetterbeobachtungen und Prognosen zu sehen.

Um die Karte zu ändern : klicken Sie auf den grünen Tasten mit einem schwarzen Kreuz Zum Vergrößern, auf den grünen Button mit einem Gedankenstrich zu verkleinern, oder auf die grünen Pfeile für benachbarte Karten.


METAR-TAF: